CheckWX is a tool to help pilots better visualize weather data.  It is not intended as a substitute for an official pre-flight weather briefing.

18:36:43 UTC

KOTM TAF
Ottumwa Regional Airport
Ottumwa, Iowa, USA
KOTM 081741Z 0818/0918 22010KT P6SM OVC250 FM082300 16005KT P6SM OVC015 FM090800 16005KT 3SM -DZ BR OVC015 FM091000 19005KT 3SM -DZ BR OVC008 FM091200 24005KT 3SM -DZ BR OVC008 FM091400 29006KT 2SM -DZ BR OVC005 FM091700 30019G26KT 5SM -RA OVC008

Dec-8@
18:00 UTC

Dec-8 @ 18:00 UTC

Dec-8@
23:00 UTC

Dec-8 @ 23:00 UTC

KOTM 081741Z 0818/0918 22010KT P6SM OVC250
Wind
  • 220° at 10 KTS
Cloud Levels
  • Overcast at 25,000' AGL

Dec-8@
23:00 UTC

Dec-8 @ 23:00 UTC

Dec-9@
08:00 UTC

Dec-9 @ 08:00 UTC

FM082300 16005KT P6SM OVC015

From

From Standard forecast or significant change

Wind
  • 160° at 5 KTS
Cloud Levels
  • Overcast at 1,500' AGL

Dec-9@
08:00 UTC

Dec-9 @ 08:00 UTC

Dec-9@
10:00 UTC

Dec-9 @ 10:00 UTC

FM090800 16005KT 3SM -DZ BR OVC015

From

From Standard forecast or significant change

Wind
  • 160° at 5 KTS
Conditions
Light Drizzle, Mist
Cloud Levels
  • Overcast at 1,500' AGL

Dec-9@
10:00 UTC

Dec-9 @ 10:00 UTC

Dec-9@
12:00 UTC

Dec-9 @ 12:00 UTC

FM091000 19005KT 3SM -DZ BR OVC008

From

From Standard forecast or significant change

Wind
  • 190° at 5 KTS
Conditions
Light Drizzle, Mist
Cloud Levels
  • Overcast at 800' AGL

Dec-9@
12:00 UTC

Dec-9 @ 12:00 UTC

Dec-9@
14:00 UTC

Dec-9 @ 14:00 UTC

FM091200 24005KT 3SM -DZ BR OVC008

From

From Standard forecast or significant change

Wind
  • 240° at 5 KTS
Conditions
Light Drizzle, Mist
Cloud Levels
  • Overcast at 800' AGL

Dec-9@
14:00 UTC

Dec-9 @ 14:00 UTC

Dec-9@
17:00 UTC

Dec-9 @ 17:00 UTC

FM091400 29006KT 2SM -DZ BR OVC005

From

From Standard forecast or significant change

Wind
  • 290° at 6 KTS
Conditions
Light Drizzle, Mist
Cloud Levels
  • Overcast at 500' AGL

Dec-9@
17:00 UTC

Dec-9 @ 17:00 UTC

Dec-9@
18:00 UTC

Dec-9 @ 18:00 UTC

FM091700 30019G26KT 5SM -RA OVC008

From

From Standard forecast or significant change

Wind
  • 300° at 19 KTS
  • {Gusting to 26 KTS
Conditions
Light Rain
Cloud Levels
  • Overcast at 800' AGL